Time;durP1;ratioP1;P1;durP2;ratioP2;P2;SDS_P1;SDS_P2;PMS_P1;PMS_P2;Temp;Humidity;BMP_temperature;BMP_pressure;BME280_temperature;BME280_humidity;BME280_pressure;Samples;Min_cycle;Max_cycle;Signal;HPM_P1;HPM_P2
2023/10/20 00:01:32;;;;;;;8.20;4.10;;;;;;;21.14;56.15;98233.53;5072205;28;20399;-57
2023/10/20 00:03:58;;;;;;;4.00;3.00;;;;;;;21.15;56.01;98235.19;5072178;28;20086;-58
2023/10/20 00:06:23;;;;;;;5.00;2.72;;;;;;;21.13;56.78;98221.03;5072590;28;20028;-58
2023/10/20 00:08:48;;;;;;;3.85;3.28;;;;;;;21.14;56.50;98219.91;5056034;28;20573;-58
2023/10/20 00:11:14;;;;;;;6.65;3.67;;;;;;;21.15;56.81;98218.84;5050798;28;20039;-58
2023/10/20 00:13:40;;;;;;;4.50;2.85;;;;;;;21.14;56.26;98221.81;5045088;28;20041;-57
2023/10/20 00:16:06;;;;;;;5.95;3.08;;;;;;;21.15;56.95;98209.84;5064528;28;20103;-57
2023/10/20 00:18:31;;;;;;;4.45;2.80;;;;;;;21.16;57.12;98204.13;5054911;28;20065;-58
2023/10/20 00:20:57;;;;;;;4.15;2.55;;;;;;;21.15;57.23;98205.22;5038570;28;20112;-57
2023/10/20 00:23:23;;;;;;;4.68;3.20;;;;;;;21.16;56.52;98206.06;5055057;28;20059;-57
2023/10/20 00:25:48;;;;;;;3.78;2.67;;;;;;;21.18;57.00;98201.16;5056402;28;20037;-57
2023/10/20 00:28:13;;;;;;;5.13;2.85;;;;;;;21.20;56.12;98194.38;5038339;28;20052;-57
2023/10/20 00:30:40;;;;;;;7.40;3.53;;;;;;;21.21;57.03;98185.13;5055827;28;20163;-57
2023/10/20 00:33:05;;;;;;;4.57;2.55;;;;;;;21.23;56.95;98176.69;5056334;28;20463;-57
2023/10/20 00:35:31;;;;;;;3.92;2.45;;;;;;;21.24;56.45;98168.28;5053788;28;20087;-57
2023/10/20 00:37:57;;;;;;;5.70;2.40;;;;;;;21.27;56.40;98165.00;5038400;28;20033;-57
2023/10/20 00:40:22;;;;;;;8.60;2.83;;;;;;;21.29;55.95;98165.56;5056335;28;20048;-57
2023/10/20 00:42:49;;;;;;;5.70;2.47;;;;;;;21.31;56.56;98157.13;5054912;28;20037;-58
2023/10/20 00:45:15;;;;;;;5.72;2.65;;;;;;;21.33;56.09;98155.78;5055029;28;20044;-57
2023/10/20 00:47:40;;;;;;;4.95;2.50;;;;;;;21.31;56.20;98147.06;5054982;28;20404;-57
2023/10/20 00:50:11;;;;;;;3.70;2.67;;;;;;;21.32;56.60;98150.59;5054917;28;20419;-57
2023/10/20 00:52:36;;;;;;;2.63;2.33;;;;;;;21.34;56.48;98146.53;5055120;28;20041;-57
2023/10/20 00:55:02;;;;;;;2.78;2.45;;;;;;;21.37;57.00;98147.91;5054835;28;20098;-57
2023/10/20 00:57:28;;;;;;;4.82;2.80;;;;;;;21.38;56.09;98130.50;5054830;28;20025;-57
2023/10/20 00:59:53;;;;;;;3.85;2.40;;;;;;;21.39;55.91;98124.75;5038040;28;20116;-57
2023/10/20 01:02:20;;;;;;;3.88;2.60;;;;;;;21.41;55.88;98117.13;5055824;28;20119;-57
2023/10/20 01:04:45;;;;;;;4.53;2.22;;;;;;;21.42;55.92;98116.06;5054474;28;20037;-57
2023/10/20 01:07:10;;;;;;;3.60;2.65;;;;;;;21.42;55.88;98116.06;5071492;28;20074;-58
2023/10/20 01:09:36;;;;;;;3.35;2.65;;;;;;;21.44;56.69;98116.59;5074700;28;20081;-58
2023/10/20 01:12:03;;;;;;;8.00;2.72;;;;;;;21.43;55.78;98109.53;5076007;28;20121;-57
2023/10/20 01:14:28;;;;;;;3.72;2.38;;;;;;;21.45;56.68;98126.44;5075578;28;20037;-59
2023/10/20 01:16:54;;;;;;;3.80;2.40;;;;;;;21.46;55.61;98122.63;5075471;28;20515;-59
2023/10/20 01:19:19;;;;;;;4.32;2.38;;;;;;;21.48;56.15;98114.19;5057004;28;20472;-59
2023/10/20 01:21:45;;;;;;;3.72;2.47;;;;;;;21.50;56.07;98100.31;5056876;28;20024;-59
2023/10/20 01:24:10;;;;;;;4.72;2.70;;;;;;;21.51;55.79;98096.47;5073396;28;20028;-59
2023/10/20 01:26:35;;;;;;;3.42;2.55;;;;;;;21.52;56.10;98089.97;5073949;28;20036;-57
2023/10/20 01:29:05;;;;;;;3.08;2.30;;;;;;;21.54;56.35;98098.69;5073688;28;20039;-57
2023/10/20 01:31:30;;;;;;;4.07;2.80;;;;;;;21.52;56.56;98098.97;5073517;28;20119;-58
2023/10/20 01:33:56;;;;;;;3.38;2.38;;;;;;;21.54;55.24;98090.50;5073419;28;20116;-57
2023/10/20 01:36:21;;;;;;;2.40;2.20;;;;;;;21.55;55.98;98083.97;5074826;28;20035;-57
2023/10/20 01:38:46;;;;;;;3.47;2.28;;;;;;;21.53;56.50;98072.50;5073378;28;20503;-58
2023/10/20 01:41:12;;;;;;;3.10;2.33;;;;;;;21.52;56.08;98063.53;5074359;28;20491;-57
2023/10/20 01:43:37;;;;;;;4.05;2.22;;;;;;;21.53;56.39;98067.88;5073453;28;20402;-58
2023/10/20 01:46:04;;;;;;;4.68;2.72;;;;;;;21.55;56.48;98078.53;5074710;28;20033;-57
2023/10/20 01:48:32;;;;;;;4.90;2.33;;;;;;;21.54;56.46;98068.72;5056587;28;20107;-57
2023/10/20 01:50:59;;;;;;;4.28;2.53;;;;;;;21.51;56.20;98050.16;5074416;28;20033;-57
2023/10/20 01:53:25;;;;;;;6.65;2.38;;;;;;;21.48;56.03;98046.91;5074081;28;20040;-57
2023/10/20 01:55:51;;;;;;;5.68;3.25;;;;;;;21.52;55.57;98043.66;5073059;28;20051;-58
2023/10/20 01:58:18;;;;;;;8.40;2.97;;;;;;;21.51;55.92;98036.56;5056530;28;20063;-57
2023/10/20 02:00:44;;;;;;;9.23;2.85;;;;;;;21.47;55.99;98031.63;5074440;28;20033;-58
2023/10/20 02:03:10;;;;;;;7.47;3.50;;;;;;;21.48;55.72;98027.84;5072866;28;20036;-57
2023/10/20 02:05:35;;;;;;;7.95;3.25;;;;;;;21.50;56.38;98029.47;5073071;28;20040;-57
2023/10/20 02:08:01;;;;;;;5.68;2.92;;;;;;;21.50;56.64;98024.03;5072737;28;20488;-57
2023/10/20 02:10:26;;;;;;;6.13;3.25;;;;;;;21.48;56.01;98016.13;5072531;28;20025;-56
2023/10/20 02:12:51;;;;;;;5.03;3.22;;;;;;;21.51;56.25;98014.75;5074132;28;20138;-57
2023/10/20 02:15:17;;;;;;;6.20;2.95;;;;;;;21.53;56.55;98007.13;5073888;28;20037;-57
2023/10/20 02:17:43;;;;;;;4.47;2.90;;;;;;;21.51;55.52;98003.84;5072874;28;20095;-58
2023/10/20 02:20:08;;;;;;;5.20;3.75;;;;;;;21.53;55.66;98007.13;5073826;28;20028;-57
2023/10/20 02:22:34;;;;;;;4.10;3.38;;;;;;;21.54;56.69;98006.06;5055688;28;20028;-57
2023/10/20 02:24:59;;;;;;;7.07;3.60;;;;;;;21.53;56.22;97994.34;5055796;28;20035;-58
2023/10/20 02:27:25;;;;;;;5.15;3.45;;;;;;;21.55;55.69;97991.34;5073546;28;20033;-58
2023/10/20 02:29:50;;;;;;;4.38;3.33;;;;;;;21.55;55.74;97988.63;5073672;28;20082;-58
2023/10/20 02:32:15;;;;;;;7.70;3.70;;;;;;;21.54;55.51;97987.81;5072344;28;20029;-58
2023/10/20 02:34:41;;;;;;;5.72;3.92;;;;;;;21.57;55.67;97984.53;5072379;28;20040;-58
2023/10/20 02:37:07;;;;;;;10.32;4.32;;;;;;;21.59;55.61;97978.81;5072414;28;20040;-58
2023/10/20 02:39:33;;;;;;;7.75;3.60;;;;;;;21.60;55.72;97975.84;5072100;28;20090;-58
2023/10/20 02:41:58;;;;;;;6.90;3.88;;;;;;;21.63;55.85;97966.31;5055492;28;20392;-58
2023/10/20 02:44:27;;;;;;;4.80;3.20;;;;;;;21.63;55.65;97966.31;5038697;28;20060;-58
2023/10/20 02:46:52;;;;;;;4.95;3.63;;;;;;;21.61;55.69;97950.22;5072098;28;20032;-58
2023/10/20 02:49:18;;;;;;;8.60;3.45;;;;;;;21.65;56.06;97942.31;5074500;28;20025;-58
2023/10/20 02:51:43;;;;;;;4.55;3.53;;;;;;;21.66;56.38;97924.88;5073161;28;20040;-58
2023/10/20 02:54:10;;;;;;;4.60;3.20;;;;;;;21.65;55.47;97906.91;5071951;28;20102;-58
2023/10/20 02:56:36;;;;;;;5.25;3.60;;;;;;;21.64;56.34;97894.34;5071968;28;20037;-58
2023/10/20 02:59:01;;;;;;;5.50;3.13;;;;;;;21.63;56.43;97901.72;5071714;28;20032;-58
2023/10/20 03:01:30;;;;;;;5.13;3.85;;;;;;;21.62;55.54;97905.53;5072892;28;20036;-58
2023/10/20 03:03:57;;;;;;;3.78;3.15;;;;;;;21.59;56.32;97907.97;5073017;28;20407;-57
2023/10/20 03:06:23;;;;;;;8.68;3.50;;;;;;;21.58;55.72;97909.09;5071737;28;20103;-57
2023/10/20 03:08:48;;;;;;;5.65;2.88;;;;;;;21.54;56.16;97910.69;5055169;28;20522;-57
2023/10/20 03:11:14;;;;;;;7.95;2.95;;;;;;;21.55;56.80;97901.44;5072829;28;20115;-57
2023/10/20 03:13:39;;;;;;;6.30;3.53;;;;;;;21.55;56.78;97898.72;5071729;28;20487;-58
2023/10/20 03:16:05;;;;;;;7.88;4.15;;;;;;;21.56;56.83;97903.06;5071726;28;20040;-58
2023/10/20 03:18:30;;;;;;;8.95;4.38;;;;;;;21.55;56.37;97880.47;5073040;28;20029;-58
2023/10/20 03:21:01;;;;;;;6.07;3.50;;;;;;;21.58;56.36;97879.13;5072899;28;20025;-58
2023/10/20 03:23:27;;;;;;;10.40;3.55;;;;;;;21.60;56.53;97871.47;5072607;28;20025;-58
2023/10/20 03:25:52;;;;;;;3.88;3.03;;;;;;;21.62;56.10;97877.47;5072861;28;20496;-58
2023/10/20 03:28:18;;;;;;;4.57;3.15;;;;;;;21.62;55.95;97875.56;5072680;28;20039;-58
2023/10/20 03:30:43;;;;;;;10.30;3.63;;;;;;;21.61;56.91;97867.69;5071406;28;20376;-58
2023/10/20 03:33:10;;;;;;;6.57;3.78;;;;;;;21.61;55.86;97851.34;5072453;28;20442;-58
2023/10/20 03:35:36;;;;;;;6.97;3.63;;;;;;;21.63;56.90;97857.31;5071342;28;20032;-58
2023/10/20 03:38:03;;;;;;;8.75;3.33;;;;;;;21.63;56.73;97846.41;5054570;28;20119;-58
2023/10/20 03:40:30;;;;;;;4.78;3.42;;;;;;;21.63;57.06;97832.78;5071246;28;20028;-58
2023/10/20 03:42:59;;;;;;;4.32;3.20;;;;;;;21.62;56.66;97831.16;5071207;28;20036;-58
2023/10/20 03:45:25;;;;;;;3.90;3.45;;;;;;;21.62;56.36;97834.69;5071197;28;20052;-58
2023/10/20 03:47:51;;;;;;;9.57;3.80;;;;;;;21.64;56.26;97834.41;5071432;28;20383;-58
2023/10/20 03:50:16;;;;;;;3.58;3.28;;;;;;;21.66;56.71;97832.25;5071195;28;20039;-59
2023/10/20 03:52:48;;;;;;;5.25;2.58;;;;;;;21.65;56.61;97825.16;5072143;28;20048;-58
2023/10/20 03:55:14;;;;;;;4.13;3.33;;;;;;;21.67;57.20;97831.13;5072696;28;20146;-57
2023/10/20 03:57:41;;;;;;;6.00;3.17;;;;;;;21.67;57.06;97822.97;5072666;28;20103;-57
2023/10/20 04:00:17;;;;;;;5.38;3.13;;;;;;;21.67;56.93;97821.06;5064764;28;20025;-58
2023/10/20 04:02:43;;;;;;;5.95;3.33;;;;;;;21.71;56.91;97821.34;5037098;28;20396;-58
2023/10/20 04:05:09;;;;;;;8.38;3.17;;;;;;;21.71;57.18;97802.28;5051099;28;20036;-57
2023/10/20 04:07:34;;;;;;;7.32;3.58;;;;;;;21.71;56.32;97796.81;5066568;28;20029;-58
2023/10/20 04:09:59;;;;;;;10.73;3.88;;;;;;;21.70;57.22;97796.00;5052158;28;20040;-57
2023/10/20 04:12:27;;;;;;;5.78;3.78;;;;;;;21.66;56.35;97800.38;5067424;28;20079;-58
2023/10/20 04:14:55;;;;;;;6.50;3.35;;;;;;;21.63;56.99;97789.22;5052431;28;20032;-57
2023/10/20 04:17:21;;;;;;;4.38;3.60;;;;;;;21.60;57.03;97773.41;5067527;28;20485;-57
2023/10/20 04:19:46;;;;;;;3.78;2.97;;;;;;;21.58;57.61;97764.69;5050874;28;20041;-57
2023/10/20 04:22:13;;;;;;;6.65;3.33;;;;;;;21.53;56.59;97741.00;5051070;28;20017;-57
2023/10/20 04:24:39;;;;;;;6.97;3.65;;;;;;;21.50;56.57;97736.09;5034247;28;20077;-57
2023/10/20 04:27:05;;;;;;;3.90;2.90;;;;;;;21.44;57.35;97732.56;5068104;28;20025;-58
2023/10/20 04:29:47;;;;;;;4.18;2.65;;;;;;;21.42;57.61;97728.47;5055702;28;20587;-58
2023/10/20 04:43:37;;;;;;;3.13;2.60;;;;;;;21.33;57.75;97684.63;5052144;28;20055;-58
2023/10/20 04:48:36;;;;;;;4.65;2.80;;;;;;;21.32;57.66;97677.59;5052172;28;20049;-57
2023/10/20 04:51:19;;;;;;;5.05;3.30;;;;;;;21.36;57.42;97683.28;5052003;28;20041;-57
2023/10/20 04:59:22;;;;;;;4.85;2.70;;;;;;;21.41;57.52;97653.31;5052177;28;20048;-58
2023/10/20 05:01:49;;;;;;;4.97;3.58;;;;;;;21.40;58.18;97665.31;5055905;28;20036;-58
2023/10/20 05:04:28;;;;;;;6.72;3.35;;;;;;;21.38;57.55;97665.56;5056282;28;20196;-57
2023/10/20 05:07:05;;;;;;;6.10;3.08;;;;;;;21.35;57.73;97652.53;5054474;28;20033;-59
2023/10/20 05:09:40;;;;;;;5.00;2.80;;;;;;;21.32;58.00;97635.91;5054332;28;20040;-63
2023/10/20 05:12:06;;;;;;;4.60;3.03;;;;;;;21.29;57.40;97620.94;5054111;28;20049;-60
2023/10/20 05:14:32;;;;;;;5.25;3.58;;;;;;;21.22;57.44;97625.03;5054233;28;20480;-60
2023/10/20 05:16:57;;;;;;;3.60;3.00;;;;;;;21.15;58.66;97611.72;5070646;28;20041;-59
2023/10/20 05:19:24;;;;;;;7.05;3.10;;;;;;;21.14;57.92;97618.25;5055445;28;20057;-59
2023/10/20 05:21:49;;;;;;;7.78;4.10;;;;;;;21.14;58.36;97618.25;5053834;28;20431;-59
2023/10/20 05:24:14;;;;;;;6.00;3.40;;;;;;;21.14;58.57;97618.25;5053517;28;20036;-59
2023/10/20 05:26:40;;;;;;;3.72;3.13;;;;;;;21.12;58.88;97620.44;5054063;28;20515;-58
2023/10/20 05:29:07;;;;;;;7.20;3.72;;;;;;;21.11;58.18;97629.69;5053603;28;20040;-58
2023/10/20 05:31:34;;;;;;;4.90;3.17;;;;;;;21.15;58.76;97640.84;5053649;28;20029;-58
2023/10/20 05:33:59;;;;;;;5.32;3.22;;;;;;;21.15;58.65;97633.50;5056942;28;20060;-58
2023/10/20 05:36:25;;;;;;;5.75;3.50;;;;;;;21.16;58.80;97632.41;5054526;28;20037;-58
2023/10/20 05:38:50;;;;;;;5.38;3.58;;;;;;;21.17;58.86;97633.22;5053352;28;20047;-58
2023/10/20 05:41:16;;;;;;;5.93;3.13;;;;;;;21.15;58.06;97619.91;5054852;28;20029;-59
2023/10/20 05:43:41;;;;;;;5.75;3.47;;;;;;;21.17;58.03;97616.88;5054458;28;20029;-60
2023/10/20 05:46:18;;;;;;;7.05;3.47;;;;;;;21.16;58.88;97610.63;5054543;28;20037;-59
2023/10/20 05:48:46;;;;;;;4.40;3.17;;;;;;;21.15;58.98;97594.56;5054325;28;20037;-60
2023/10/20 05:51:12;;;;;;;5.95;2.85;;;;;;;21.16;58.78;97580.66;5053215;28;20025;-60
2023/10/20 05:53:37;;;;;;;4.32;2.92;;;;;;;21.16;58.19;97593.50;5052752;28;20053;-58
2023/10/20 05:56:04;;;;;;;4.85;3.22;;;;;;;21.15;58.92;97598.13;5036827;28;20074;-58
2023/10/20 05:58:32;;;;;;;4.55;3.22;;;;;;;21.17;58.54;97589.66;5053575;28;20036;-59
2023/10/20 06:01:03;;;;;;;3.97;2.75;;;;;;;21.18;58.89;97583.13;5053413;28;20109;-59
2023/10/20 06:03:29;;;;;;;6.07;3.20;;;;;;;21.15;58.45;97587.22;5053798;28;20059;-59
2023/10/20 06:06:03;;;;;;;5.22;3.70;;;;;;;21.15;58.63;97602.75;5055606;28;20051;-59
2023/10/20 06:08:29;;;;;;;5.45;3.10;;;;;;;21.16;59.06;97616.06;5071170;28;20029;-60
2023/10/20 06:11:05;;;;;;;4.43;3.20;;;;;;;21.14;58.80;97612.81;5053369;28;20055;-59
2023/10/20 06:13:32;;;;;;;4.28;3.20;;;;;;;21.14;58.17;97612.00;5036193;28;20029;-58
2023/10/20 06:15:59;;;;;;;5.72;3.05;;;;;;;21.12;59.08;97593.22;5053082;28;20437;-58
2023/10/20 06:18:24;;;;;;;5.95;3.10;;;;;;;21.11;58.31;97585.31;5038405;28;20025;-58
2023/10/20 06:20:50;;;;;;;5.75;3.25;;;;;;;21.12;59.16;97581.50;5054214;28;20400;-59
2023/10/20 06:23:16;;;;;;;6.05;3.20;;;;;;;21.11;59.15;97586.13;5053811;28;20025;-59
2023/10/20 06:25:42;;;;;;;6.72;3.58;;;;;;;21.09;58.62;97593.78;5054240;28;20033;-59
2023/10/20 06:28:07;;;;;;;5.30;3.33;;;;;;;21.07;59.24;97595.09;5053865;28;20404;-59
2023/10/20 06:30:33;;;;;;;4.85;3.25;;;;;;;21.02;59.02;97604.09;5054354;28;20060;-59
2023/10/20 06:35:47;;;;;;;5.90;3.13;;;;;;;21.00;58.74;97592.66;5053858;28;20035;-59
2023/10/20 06:38:14;;;;;;;4.13;2.85;;;;;;;20.97;59.06;97593.22;5052243;28;20044;-59
2023/10/20 06:40:40;;;;;;;4.30;3.28;;;;;;;20.97;59.34;97590.50;5052189;28;20080;-58
2023/10/20 06:43:05;;;;;;;4.10;3.30;;;;;;;20.94;58.79;97584.81;5053423;28;20033;-59
2023/10/20 06:45:31;;;;;;;4.35;2.88;;;;;;;20.94;59.56;97580.16;5052122;28;20483;-59
2023/10/20 06:47:57;;;;;;;9.57;4.38;;;;;;;20.89;58.94;97572.81;5069003;28;20052;-59
2023/10/20 06:50:23;;;;;;;4.80;3.35;;;;;;;20.92;58.98;97579.63;5052422;28;20492;-60
2023/10/20 06:52:48;;;;;;;9.32;3.75;;;;;;;20.92;58.93;97576.91;5051823;28;20033;-60
2023/10/20 06:55:13;;;;;;;7.18;3.65;;;;;;;20.92;59.66;97582.34;5051936;28;20206;-59
2023/10/20 06:57:38;;;;;;;5.28;3.42;;;;;;;20.90;59.10;97585.34;5051952;28;20099;-59
2023/10/20 07:00:06;;;;;;;5.75;3.60;;;;;;;20.91;59.55;97586.13;5051741;28;20037;-60
2023/10/20 07:02:31;;;;;;;5.93;3.42;;;;;;;20.85;59.54;97579.09;5053339;28;20033;-63
2023/10/20 07:04:57;;;;;;;5.00;3.58;;;;;;;20.83;59.58;97584.81;5053109;28;20116;-61
2023/10/20 07:07:23;;;;;;;5.72;3.70;;;;;;;20.79;59.47;97577.47;5051846;28;20377;-61
2023/10/20 07:09:48;;;;;;;4.78;3.58;;;;;;;20.78;59.28;97578.56;5051715;28;20094;-61
2023/10/20 07:12:15;;;;;;;13.60;4.82;;;;;;;20.76;59.36;97578.03;5051538;28;20049;-61
2023/10/20 07:14:42;;;;;;;6.03;3.97;;;;;;;20.75;59.08;97579.09;5051581;28;20530;-61
2023/10/20 07:17:08;;;;;;;7.18;3.97;;;;;;;20.71;59.57;97572.59;5052861;28;20411;-62
2023/10/20 07:19:33;;;;;;;4.50;3.40;;;;;;;20.72;59.15;97571.47;5051580;28;20029;-61
2023/10/20 07:22:00;;;;;;;5.85;3.92;;;;;;;20.68;59.85;97573.13;5034687;28;20108;-61
2023/10/20 07:24:26;;;;;;;7.22;3.47;;;;;;;20.70;60.07;97579.09;5068064;28;20029;-60
2023/10/20 07:26:52;;;;;;;5.25;3.38;;;;;;;20.69;59.59;97567.41;5052680;28;20056;-61
2023/10/20 07:29:17;;;;;;;6.63;3.35;;;;;;;20.71;59.99;97569.88;5051410;28;20500;-62
2023/10/20 07:31:45;;;;;;;8.38;3.25;;;;;;;20.69;59.80;97569.31;5034666;28;20500;-61
2023/10/20 07:34:11;;;;;;;4.90;3.40;;;;;;;20.71;59.85;97575.31;5051333;28;20459;-62
2023/10/20 07:36:36;;;;;;;5.97;3.15;;;;;;;20.69;59.87;97566.59;5051320;28;20029;-62
2023/10/20 07:39:03;;;;;;;5.03;3.03;;;;;;;20.69;59.59;97561.16;5051279;28;20025;-61
2023/10/20 07:41:28;;;;;;;3.80;2.78;;;;;;;20.72;60.13;97555.16;5052418;28;20036;-61
2023/10/20 07:43:53;;;;;;;6.43;2.53;;;;;;;20.71;59.87;97559.00;5051104;28;20025;-61
2023/10/20 07:46:21;;;;;;;3.75;2.47;;;;;;;20.72;59.74;97557.88;5052471;28;20051;-61
2023/10/20 07:48:46;;;;;;;5.28;2.42;;;;;;;20.74;60.27;97561.16;5051073;28;20060;-61
2023/10/20 07:51:12;;;;;;;3.28;2.45;;;;;;;20.73;59.54;97556.81;5051192;28;20052;-60
2023/10/20 07:53:37;;;;;;;4.32;2.33;;;;;;;20.76;60.06;97548.09;5050782;28;20048;-60
2023/10/20 07:56:03;;;;;;;2.72;2.10;;;;;;;20.79;59.79;97551.09;5051092;28;20063;-61
2023/10/20 07:58:28;;;;;;;4.45;2.13;;;;;;;20.83;60.28;97556.78;5034446;28;20407;-60
2023/10/20 08:00:54;;;;;;;2.55;1.80;;;;;;;20.85;60.50;97560.06;5050930;28;20033;-60
2023/10/20 08:03:19;;;;;;;2.15;1.85;;;;;;;20.87;59.79;97557.88;5050904;28;20091;-60
2023/10/20 08:05:44;;;;;;;2.72;1.67;;;;;;;20.92;60.44;97561.38;5052466;28;20040;-60
2023/10/20 08:08:10;;;;;;;2.15;1.77;;;;;;;20.95;60.45;97564.66;5050779;28;20029;-60
2023/10/20 08:10:36;;;;;;;1.30;1.20;;;;;;;20.93;59.71;97556.78;5050725;28;20040;-60
2023/10/20 08:13:02;;;;;;;2.10;1.48;;;;;;;20.95;60.35;97570.09;5052266;28;20068;-61
2023/10/20 08:15:28;;;;;;;1.95;1.40;;;;;;;20.96;59.80;97569.81;5052195;28;20036;-60
2023/10/20 08:17:54;;;;;;;1.10;1.00;;;;;;;20.96;60.10;97577.16;5034200;28;20052;-60
2023/10/20 08:20:20;;;;;;;2.05;1.52;;;;;;;20.96;59.61;97572.56;5050930;28;20048;-61
2023/10/20 08:22:45;;;;;;;1.35;1.15;;;;;;;20.96;59.61;97578.00;5034060;28;20377;-62
2023/10/20 08:25:11;;;;;;;2.45;1.30;;;;;;;20.94;60.14;97577.44;5067635;28;20040;-62
2023/10/20 08:27:36;;;;;;;1.35;1.25;;;;;;;20.94;59.74;97577.44;5050697;28;20033;-61
2023/10/20 08:30:02;;;;;;;3.10;1.20;;;;;;;20.92;60.20;97576.91;5052007;28;20029;-61
2023/10/20 08:32:28;;;;;;;0.85;0.85;;;;;;;20.92;59.52;97574.19;5052117;28;20033;-61
2023/10/20 08:34:53;;;;;;;4.50;1.00;;;;;;;20.93;60.24;97573.09;5051872;28;20048;-61
2023/10/20 08:37:19;;;;;;;1.27;1.17;;;;;;;20.93;59.87;97562.22;5054724;28;20045;-61
2023/10/20 08:39:45;;;;;;;0.80;0.80;;;;;;;20.94;60.30;97569.25;5053645;28;20037;-62
2023/10/20 08:42:17;;;;;;;2.53;1.20;;;;;;;20.93;60.17;97564.94;5054634;28;20098;-62
2023/10/20 08:44:43;;;;;;;1.17;1.08;;;;;;;20.92;60.41;97572.28;5037793;28;20049;-61
2023/10/20 08:47:10;;;;;;;1.65;1.17;;;;;;;20.93;60.29;97567.66;5054407;28;20543;-61
2023/10/20 08:49:36;;;;;;;3.60;1.10;;;;;;;20.95;60.44;97572.81;5054519;28;20029;-61
2023/10/20 08:52:02;;;;;;;1.45;0.98;;;;;;;20.99;60.28;97571.19;5054610;28;20045;-61
2023/10/20 08:54:28;;;;;;;1.60;1.10;;;;;;;20.96;60.60;97566.28;5037750;28;20044;-60
2023/10/20 08:56:53;;;;;;;2.58;1.65;;;;;;;21.02;59.79;97570.63;5054328;28;20028;-61
2023/10/20 08:59:19;;;;;;;1.58;1.27;;;;;;;21.04;60.32;97561.09;5054165;28;20029;-60
2023/10/20 09:01:46;;;;;;;2.38;1.67;;;;;;;21.08;60.61;97553.22;5054242;28;20033;-60
2023/10/20 09:04:22;;;;;;;1.98;1.20;;;;;;;21.09;60.46;97555.66;5055543;28;20117;-60
2023/10/20 09:06:48;;;;;;;5.05;1.42;;;;;;;21.11;59.66;97558.91;5054203;28;20043;-60
2023/10/20 09:09:14;;;;;;;1.77;1.30;;;;;;;21.14;59.98;97555.63;5053739;28;20069;-62
2023/10/20 09:11:43;;;;;;;1.48;1.38;;;;;;;21.17;60.05;97554.25;5054201;28;20025;-60
2023/10/20 09:14:10;;;;;;;2.58;1.23;;;;;;;21.19;60.45;97544.72;5055000;28;20039;-59
2023/10/20 09:16:36;;;;;;;1.48;1.15;;;;;;;21.21;59.56;97542.56;5053925;28;20029;-58
2023/10/20 09:19:03;;;;;;;2.28;1.48;;;;;;;21.24;59.77;97547.47;5053748;28;20025;-59
2023/10/20 09:21:29;;;;;;;2.03;0.95;;;;;;;21.26;59.87;97547.97;5053648;28;20484;-59
2023/10/20 09:24:00;;;;;;;3.00;1.65;;;;;;;21.29;59.60;97555.59;5053786;28;20058;-61
2023/10/20 09:26:27;;;;;;;2.70;1.70;;;;;;;21.34;60.54;97552.84;5055142;28;20496;-59
2023/10/20 09:28:54;;;;;;;1.77;1.45;;;;;;;21.37;59.59;97552.28;5037005;28;20029;-59
2023/10/20 09:31:20;;;;;;;2.78;1.55;;;;;;;21.41;59.48;97564.25;5053924;28;20048;-59
2023/10/20 09:33:46;;;;;;;1.70;1.50;;;;;;;21.42;59.42;97560.44;5053437;28;20029;-59
2023/10/20 09:36:12;;;;;;;2.22;1.20;;;;;;;21.41;59.98;97558.78;5053695;28;20036;-58
2023/10/20 09:38:38;;;;;;;1.85;1.30;;;;;;;21.45;60.09;97565.34;5053686;28;20544;-59
2023/10/20 09:41:11;;;;;;;2.00;1.45;;;;;;;21.44;60.06;97563.69;5038561;28;20120;-59
2023/10/20 09:43:45;;;;;;;1.67;1.13;;;;;;;21.46;59.64;97572.41;5039517;28;20090;-59
2023/10/20 09:46:19;;;;;;;2.45;1.20;;;;;;;21.52;60.18;97565.03;5038924;28;20603;-59
2023/10/20 09:48:46;;;;;;;5.88;1.90;;;;;;;21.56;59.88;97559.81;5054581;28;20040;-58
2023/10/20 09:51:12;;;;;;;3.45;1.55;;;;;;;21.61;59.46;97568.00;5036601;28;20036;-58
2023/10/20 09:53:38;;;;;;;5.80;1.80;;;;;;;21.64;60.05;97562.78;5036415;28;20045;-59
2023/10/20 09:56:04;;;;;;;2.90;1.48;;;;;;;21.64;59.66;97559.25;5053174;28;20033;-58
2023/10/20 09:58:36;;;;;;;1.70;1.38;;;;;;;21.64;59.47;97551.88;5053023;28;20072;-59
2023/10/20 10:01:03;;;;;;;2.03;1.50;;;;;;;21.72;60.27;97555.94;5054363;28;20220;-58
2023/10/20 10:03:29;;;;;;;1.85;1.50;;;;;;;21.75;59.68;97553.47;5054317;28;20041;-59
2023/10/20 10:05:54;;;;;;;4.30;1.30;;;;;;;21.73;59.92;97555.66;5054333;28;20029;-59
2023/10/20 10:08:20;;;;;;;2.78;1.70;;;;;;;21.73;59.79;97554.84;5054237;28;20048;-59
2023/10/20 10:10:46;;;;;;;1.83;1.55;;;;;;;21.76;60.35;97554.28;5036226;28;20041;-59
2023/10/20 10:13:11;;;;;;;3.53;1.55;;;;;;;21.78;59.56;97552.06;5054290;28;20040;-59
2023/10/20 10:15:41;;;;;;;5.03;1.33;;;;;;;21.81;59.63;97551.53;5036312;28;20037;-59
2023/10/20 10:18:12;;;;;;;3.13;1.67;;;;;;;21.84;60.05;97557.22;5052940;28;20400;-59
2023/10/20 10:20:48;;;;;;;2.53;1.02;;;;;;;21.88;59.21;97543.91;5052889;28;20033;-58
2023/10/20 10:23:16;;;;;;;4.82;1.30;;;;;;;21.91;59.21;97541.44;5052512;28;20056;-58
2023/10/20 10:25:44;;;;;;;3.63;1.65;;;;;;;21.93;59.33;97532.94;5052654;28;20493;-58
2023/10/20 10:28:17;;;;;;;4.63;1.85;;;;;;;21.97;60.04;97534.81;5052626;28;20445;-59
2023/10/20 10:30:43;;;;;;;2.20;1.40;;;;;;;21.96;60.08;97529.66;5052459;28;20033;-62
2023/10/20 10:33:12;;;;;;;3.60;1.77;;;;;;;21.99;60.04;97534.56;5053937;28;20048;-60
2023/10/20 10:35:38;;;;;;;2.72;1.58;;;;;;;22.01;59.89;97530.44;5053618;28;20037;-61
2023/10/20 10:38:24;;;;;;;1.95;1.70;;;;;;;21.99;59.17;97529.09;5052510;28;20123;-60
2023/10/20 10:40:53;;;;;;;2.85;1.38;;;;;;;21.97;59.08;97525.84;5052114;28;20556;-61
2023/10/20 10:43:21;;;;;;;2.13;1.30;;;;;;;21.90;59.46;97519.88;5053792;28;20032;-61
2023/10/20 10:45:52;;;;;;;1.42;1.10;;;;;;;21.85;60.13;97514.44;5053705;28;20385;-61
2023/10/20 10:48:18;;;;;;;2.55;2.00;;;;;;;21.82;59.68;97504.94;5053327;28;20037;-60
2023/10/20 10:50:45;;;;;;;1.98;1.45;;;;;;;21.78;59.68;97501.13;5035435;28;20055;-66
2023/10/20 10:53:11;;;;;;;3.83;1.60;;;;;;;21.72;60.23;97482.38;5035450;28;20041;-62
2023/10/20 10:55:37;;;;;;;3.58;1.55;;;;;;;21.65;59.90;97462.81;5035730;28;20048;-62
2023/10/20 10:58:05;;;;;;;1.30;1.20;;;;;;;21.66;59.35;97494.41;5051516;28;20335;-61
2023/10/20 11:00:32;;;;;;;2.95;1.83;;;;;;;21.63;59.52;97479.44;5052328;28;20487;-62
2023/10/20 11:02:58;;;;;;;1.65;1.48;;;;;;;21.63;59.64;97476.72;5054424;28;20433;-61
2023/10/20 11:05:24;;;;;;;1.58;1.30;;;;;;;21.61;59.33;97469.94;5035435;28;20039;-61
2023/10/20 11:08:01;;;;;;;2.75;1.65;;;;;;;21.55;59.48;97471.06;5051907;28;20017;-61
2023/10/20 11:10:29;;;;;;;1.85;1.73;;;;;;;21.51;60.03;97470.78;5046669;28;20033;-60
2023/10/20 11:12:56;;;;;;;2.20;1.50;;;;;;;21.47;60.11;97462.34;5051815;28;20167;-61
2023/10/20 11:15:24;;;;;;;2.08;1.38;;;;;;;21.52;60.31;97460.72;5035086;28;20118;-61
2023/10/20 11:17:51;;;;;;;2.53;1.90;;;;;;;21.53;60.28;97465.03;5051677;28;20055;-60
2023/10/20 11:20:20;;;;;;;1.88;1.73;;;;;;;21.52;59.62;97455.28;5051461;28;20033;-61
2023/10/20 11:22:46;;;;;;;1.90;1.70;;;;;;;21.54;60.25;97455.78;5052779;28;20037;-60
2023/10/20 11:25:22;;;;;;;2.95;1.80;;;;;;;21.59;59.70;97453.03;5051624;28;20021;-61
2023/10/20 11:27:54;;;;;;;3.63;1.60;;;;;;;21.59;60.37;97461.19;5033553;28;20037;-61
2023/10/20 11:30:28;;;;;;;1.60;1.50;;;;;;;21.58;59.40;97459.59;5052877;28;20392;-61
2023/10/20 11:32:54;;;;;;;3.63;1.67;;;;;;;21.60;59.26;97447.31;5034859;28;20118;-60
2023/10/20 11:35:21;;;;;;;2.38;1.92;;;;;;;21.62;59.55;97450.56;5051456;28;20036;-61
2023/10/20 11:37:48;;;;;;;3.47;1.98;;;;;;;21.57;59.91;97436.97;5034678;28;20052;-61
2023/10/20 11:40:15;;;;;;;1.85;1.50;;;;;;;21.57;60.02;97442.44;5051005;28;20038;-61
2023/10/20 11:42:40;;;;;;;2.72;2.13;;;;;;;21.50;59.55;97441.13;5052746;28;20099;-61
2023/10/20 11:45:06;;;;;;;3.60;2.00;;;;;;;21.57;59.34;97447.88;5051109;28;20485;-61
2023/10/20 11:47:33;;;;;;;2.78;2.25;;;;;;;21.61;59.65;97442.69;5051111;28;20136;-61
2023/10/20 11:49:58;;;;;;;4.35;3.08;;;;;;;21.64;60.36;97447.53;5051240;28;20029;-61
2023/10/20 11:52:24;;;;;;;5.07;3.40;;;;;;;21.64;59.61;97436.66;5050825;28;20049;-61
2023/10/20 11:54:49;;;;;;;4.75;2.25;;;;;;;21.61;59.47;97446.19;5034565;28;20492;-62